Time;durP1;ratioP1;P1;durP2;ratioP2;P2;SDS_P1;SDS_P2;PMS_P1;PMS_P2;Temp;Humidity;BMP_temperature;BMP_pressure;BME280_temperature;BME280_humidity;BME280_pressure;Samples;Min_cycle;Max_cycle;Signal;HPM_P1;HPM_P2
2021/12/25 00:00:35;;;;;;;48.58;25.10;;;;;;;2.06;81.39;148185.09;1765091;80;22131;-65
2021/12/25 00:03:01;;;;;;;46.92;23.35;;;;;;;2.06;81.48;148185.09;1772162;80;21014;-66
2021/12/25 00:05:28;;;;;;;45.12;23.80;;;;;;;2.07;81.53;148187.67;1763997;80;21944;-65
2021/12/25 00:07:56;;;;;;;44.67;23.45;;;;;;;2.07;81.59;148187.67;1732937;81;21555;-66
2021/12/25 00:10:22;;;;;;;52.05;24.32;;;;;;;2.09;81.68;148194.13;1767494;80;21055;-59
2021/12/25 00:12:50;;;;;;;45.92;25.45;;;;;;;2.11;81.76;148198.02;1766592;80;21048;-60
2021/12/25 00:15:17;;;;;;;43.15;23.77;;;;;;;2.13;81.82;148203.17;1757804;81;21067;-64
2021/12/25 00:17:44;;;;;;;43.75;23.07;;;;;;;2.13;81.84;148203.17;1787660;80;20929;-64
2021/12/25 00:20:10;;;;;;;47.95;23.95;;;;;;;2.14;81.91;148205.75;1764068;81;21133;-60
2021/12/25 00:22:39;;;;;;;43.73;24.75;;;;;;;2.12;81.92;148200.59;1773953;80;20988;-59
2021/12/25 00:25:07;;;;;;;45.15;22.90;;;;;;;2.11;82.00;148198.02;1767697;80;20972;-59
2021/12/25 00:34:59;;;;;;;45.58;22.93;;;;;;;2.09;82.41;148192.81;1762918;81;20988;-59
2021/12/25 00:37:26;;;;;;;42.88;22.02;;;;;;;2.11;82.52;148198.02;1764432;80;21068;-59
2021/12/25 00:39:55;;;;;;;43.52;23.42;;;;;;;2.12;82.63;148200.59;1757671;80;21154;-60
2021/12/25 00:42:22;;;;;;;44.18;23.10;;;;;;;2.11;82.74;148199.28;1778902;80;21123;-60
2021/12/25 00:44:49;;;;;;;44.38;23.75;;;;;;;2.11;82.85;148199.28;1763778;81;21140;-60
2021/12/25 00:47:17;;;;;;;43.25;22.73;;;;;;;2.14;82.91;148205.75;1769806;80;20948;-61
2021/12/25 00:49:44;;;;;;;41.10;21.87;;;;;;;2.14;82.98;148205.75;1754264;80;20945;-60
2021/12/25 00:52:11;;;;;;;45.35;23.92;;;;;;;2.17;83.12;148213.47;1746559;81;21007;-60
2021/12/25 00:54:38;;;;;;;41.08;21.73;;;;;;;2.19;83.29;148218.62;1750465;80;21088;-59
2021/12/25 00:57:05;;;;;;;38.73;22.90;;;;;;;2.22;83.30;148225.09;1759096;81;21120;-59
2021/12/25 00:59:32;;;;;;;47.73;24.60;;;;;;;2.21;83.30;148222.47;1757514;80;21017;-61
2021/12/25 01:01:59;;;;;;;46.53;22.98;;;;;;;2.21;83.39;148223.78;1749931;80;21005;-60
2021/12/25 01:04:26;;;;;;;40.55;22.00;;;;;;;2.20;83.49;148221.20;1747472;81;21016;-60
2021/12/25 01:06:53;;;;;;;42.03;22.65;;;;;;;2.21;83.57;148223.78;1754337;80;21004;-60
2021/12/25 01:09:21;;;;;;;41.65;22.65;;;;;;;2.22;83.61;148226.36;1715163;83;21922;-59
2021/12/25 01:11:50;;;;;;;43.70;24.23;;;;;;;2.21;83.69;148223.78;1742824;80;21004;-61
2021/12/25 01:17:09;;;;;;;42.63;22.83;;;;;;;2.21;83.78;148223.78;1753011;80;20965;-60
2021/12/25 01:22:39;;;;;;;43.60;23.05;;;;;;;2.22;83.96;148226.36;1755222;80;21836;-60
2021/12/25 01:25:04;;;;;;;45.40;23.05;;;;;;;2.21;83.99;148222.47;1705304;83;21056;-59
2021/12/25 01:30:20;;;;;;;49.27;24.80;;;;;;;2.17;84.31;148213.47;1744980;81;21102;-60
2021/12/25 01:33:06;;;;;;;41.65;23.02;;;;;;;2.15;84.34;148208.33;1741004;81;21051;-60
2021/12/25 01:38:51;;;;;;;34.38;17.77;;;;;;;2.12;84.62;148200.59;1726276;82;21033;-60
2021/12/25 01:41:43;;;;;;;47.25;22.00;;;;;;;2.14;84.66;148205.75;1712193;83;21028;-63
2021/12/25 01:49:24;;;;;;;43.58;22.65;;;;;;;2.06;84.97;148185.09;1729725;80;21496;-59
2021/12/25 01:51:50;;;;;;;41.37;22.87;;;;;;;2.03;85.02;148177.36;1752783;80;20997;-60
2021/12/25 01:54:17;;;;;;;38.35;22.02;;;;;;;2.00;85.13;148172.22;1752249;80;21069;-59
2021/12/25 01:56:46;;;;;;;44.27;23.73;;;;;;;1.97;85.24;148164.48;1760111;80;21035;-59
2021/12/25 01:59:13;;;;;;;46.30;23.40;;;;;;;1.92;85.36;148150.30;1759344;80;21091;-59
2021/12/25 02:01:40;;;;;;;42.08;21.80;;;;;;;1.88;85.62;148141.30;1767851;81;21756;-60
2021/12/25 02:04:07;;;;;;;45.35;24.23;;;;;;;1.85;85.88;148134.84;1759150;80;21056;-60
2021/12/25 02:06:34;;;;;;;42.80;23.12;;;;;;;1.86;86.06;148136.09;1765366;80;21037;-59
2021/12/25 02:09:03;;;;;;;44.15;23.05;;;;;;;1.84;86.24;148132.27;1757312;80;21040;-59
2021/12/25 02:11:29;;;;;;;43.60;22.65;;;;;;;1.84;86.40;148132.27;1750172;81;20992;-60
2021/12/25 02:13:58;;;;;;;43.23;23.73;;;;;;;1.86;86.42;148137.41;1751588;81;20948;-59
2021/12/25 02:16:30;;;;;;;43.33;22.98;;;;;;;1.84;86.48;148130.95;1757975;80;21031;-60
2021/12/25 02:19:02;;;;;;;46.28;24.80;;;;;;;1.83;86.56;148128.38;1724820;82;21024;-60
2021/12/25 02:21:35;;;;;;;45.20;23.27;;;;;;;1.80;86.63;148120.64;1743071;80;20976;-60
2021/12/25 02:23:56;;;;;;;42.48;23.27;;;;;;;1.79;86.65;148118.06;1754326;80;21088;-61
2021/12/25 02:26:24;;;;;;;40.73;22.82;;;;;;;1.75;86.65;148107.77;1724356;82;23156;-60
2021/12/25 02:28:53;;;;;;;41.63;22.70;;;;;;;1.70;86.71;148096.16;1761639;81;21017;-61
2021/12/25 02:31:20;;;;;;;45.52;22.67;;;;;;;1.65;86.89;148083.28;1756067;80;21088;-58
2021/12/25 02:33:46;;;;;;;47.25;22.93;;;;;;;1.60;87.10;148071.66;1761602;81;22117;-60
2021/12/25 02:36:14;;;;;;;40.95;21.77;;;;;;;1.57;87.30;148063.94;1765283;80;21039;-60
2021/12/25 02:38:41;;;;;;;43.55;23.05;;;;;;;1.55;87.52;148058.78;1743220;81;21631;-59
2021/12/25 02:41:08;;;;;;;42.85;22.85;;;;;;;1.51;87.72;148049.75;1759617;80;21343;-59
2021/12/25 02:43:35;;;;;;;39.58;22.82;;;;;;;1.51;87.99;148049.75;1750946;81;21127;-60
2021/12/25 02:46:04;;;;;;;43.00;23.02;;;;;;;1.52;88.15;148051.06;1756495;81;20933;-60
2021/12/25 02:48:36;;;;;;;45.63;22.80;;;;;;;1.52;88.27;148051.06;1755891;81;22604;-60
2021/12/25 02:51:03;;;;;;;46.08;23.50;;;;;;;1.53;88.48;148053.64;1765795;80;21204;-60
2021/12/25 02:53:31;;;;;;;43.25;23.12;;;;;;;1.52;88.66;148051.06;1748457;80;21051;-60
2021/12/25 02:55:58;;;;;;;42.62;22.45;;;;;;;1.54;88.97;148056.22;1749593;80;21056;-61
2021/12/25 02:58:26;;;;;;;45.17;23.32;;;;;;;1.56;89.05;148061.37;1751900;80;21533;-59
2021/12/25 03:01:04;;;;;;;41.18;22.27;;;;;;;1.57;89.05;148063.94;1737745;80;20981;-60
2021/12/25 03:03:31;;;;;;;42.62;22.82;;;;;;;1.57;89.09;148063.94;1738161;81;23202;-59
2021/12/25 03:06:00;;;;;;;40.23;21.80;;;;;;;1.60;89.13;148070.41;1749287;80;21569;-60
2021/12/25 03:08:27;;;;;;;41.15;22.15;;;;;;;1.61;89.25;148074.23;1694001;81;21041;-59
2021/12/25 03:10:55;;;;;;;40.88;21.52;;;;;;;1.61;89.35;148074.23;1717146;82;21048;-66
2021/12/25 03:15:58;;;;;;;39.50;22.10;;;;;;;1.64;89.45;148081.97;1759627;80;21818;-61
2021/12/25 03:18:32;;;;;;;39.08;22.42;;;;;;;1.63;89.47;148079.39;1739784;80;21058;-59
2021/12/25 03:21:02;;;;;;;42.05;21.77;;;;;;;1.62;89.55;148076.81;1749031;81;21001;-59
2021/12/25 03:23:30;;;;;;;47.08;23.00;;;;;;;1.62;89.62;148075.56;1707268;81;21116;-60
2021/12/25 03:25:59;;;;;;;43.65;21.62;;;;;;;1.61;89.71;148072.98;1733392;81;21020;-60
2021/12/25 03:28:30;;;;;;;43.65;21.40;;;;;;;1.59;89.80;148067.83;1757369;80;21197;-61
2021/12/25 03:31:01;;;;;;;37.80;21.20;;;;;;;1.57;90.07;148063.94;1746095;80;20958;-60
2021/12/25 03:33:29;;;;;;;38.42;20.72;;;;;;;1.58;90.37;148066.52;1772864;80;21067;-61
2021/12/25 03:35:55;;;;;;;39.20;20.88;;;;;;;1.59;90.64;148067.83;1739511;80;21040;-60
2021/12/25 03:38:22;;;;;;;47.45;22.93;;;;;;;1.64;90.84;148081.97;1759885;80;21087;-60
2021/12/25 03:40:50;;;;;;;39.40;20.72;;;;;;;1.65;90.81;148084.55;1760316;80;21955;-66
2021/12/25 03:43:18;;;;;;;41.05;21.65;;;;;;;1.64;90.72;148081.97;1734605;80;21522;-66
2021/12/25 03:45:44;;;;;;;37.15;20.90;;;;;;;1.64;90.65;148081.97;1747212;81;21060;-65
2021/12/25 03:48:29;;;;;;;39.75;20.80;;;;;;;1.63;90.64;148079.39;1752265;80;20985;-66
2021/12/25 03:58:53;;;;;;;37.90;20.52;;;;;;;1.67;91.33;148088.44;1755581;81;21343;-60
2021/12/25 04:01:45;;;;;;;40.88;20.20;;;;;;;1.70;91.42;148097.47;1745372;80;21108;-61
2021/12/25 04:04:13;;;;;;;43.48;21.93;;;;;;;1.71;91.35;148100.05;1749745;80;21119;-60
2021/12/25 04:06:44;;;;;;;37.30;20.30;;;;;;;1.71;91.40;148100.05;1749845;81;21084;-59
2021/12/25 04:09:13;;;;;;;42.05;20.60;;;;;;;1.73;91.46;148102.63;1730121;81;21091;-60
2021/12/25 04:11:35;;;;;;;40.03;21.65;;;;;;;1.74;91.44;148105.19;1721407;82;21051;-61
2021/12/25 04:14:02;;;;;;;38.13;19.90;;;;;;;1.71;91.40;148100.05;1723897;82;21016;-60
2021/12/25 04:16:31;;;;;;;41.08;19.85;;;;;;;1.70;91.50;148097.47;1720187;81;21031;-59
2021/12/25 04:19:01;;;;;;;42.25;21.40;;;;;;;1.69;91.68;148094.89;1723625;82;21142;-60
2021/12/25 04:21:28;;;;;;;38.48;21.07;;;;;;;1.70;91.81;148097.47;1746569;82;21080;-60
2021/12/25 04:23:55;;;;;;;35.58;19.27;;;;;;;1.70;91.90;148097.47;1727868;81;21004;-60
2021/12/25 04:26:24;;;;;;;37.42;19.67;;;;;;;1.72;92.05;148101.31;1723881;81;21521;-61
2021/12/25 04:31:33;;;;;;;37.35;19.67;;;;;;;1.76;92.38;148111.61;1709310;82;20983;-59
2021/12/25 04:48:33;;;;;;;35.52;19.27;;;;;;;1.86;92.46;148136.09;1750967;81;21589;-61
2021/12/25 05:04:31;;;;;;;32.45;16.25;;;;;;;1.87;93.08;148138.67;1651566;86;21223;-59
2021/12/25 05:06:53;;;;;;;32.42;17.55;;;;;;;1.90;93.16;148145.14;1678109;82;21363;-59
2021/12/25 05:09:20;;;;;;;32.90;16.70;;;;;;;1.91;93.30;148147.72;1762084;80;21022;-60
2021/12/25 05:11:46;;;;;;;32.15;15.93;;;;;;;1.93;93.38;148152.87;1739722;80;21485;-60
2021/12/25 05:14:13;;;;;;;30.57;16.57;;;;;;;1.94;93.42;148156.75;1761745;80;21065;-59
2021/12/25 05:16:42;;;;;;;30.25;16.45;;;;;;;1.94;93.64;148155.44;1762247;80;20988;-60
2021/12/25 05:19:09;;;;;;;32.28;16.48;;;;;;;1.96;93.88;148160.59;1776149;80;20992;-60
2021/12/25 05:21:36;;;;;;;28.02;15.83;;;;;;;1.98;94.08;148167.06;1763506;81;21023;-66
2021/12/25 05:24:05;;;;;;;28.17;15.43;;;;;;;2.03;94.15;148178.67;1767362;80;21158;-66
2021/12/25 05:26:34;;;;;;;26.75;15.28;;;;;;;2.06;94.44;148186.41;1769617;80;21024;-66
2021/12/25 05:29:02;;;;;;;31.07;16.85;;;;;;;2.12;94.82;148200.59;1771311;80;21083;-67
2021/12/25 05:31:32;;;;;;;30.27;16.90;;;;;;;2.18;94.79;148214.73;1774588;80;21481;-65
2021/12/25 05:34:10;;;;;;;28.90;16.40;;;;;;;2.22;94.64;148225.09;1737507;80;21048;-66
2021/12/25 05:36:54;;;;;;;28.75;15.68;;;;;;;2.21;94.58;148223.78;1757122;79;21286;-67
2021/12/25 05:39:23;;;;;;;27.00;15.83;;;;;;;2.25;94.58;148232.83;1755191;80;21429;-66
2021/12/25 05:41:50;;;;;;;30.80;16.42;;;;;;;2.26;94.67;148236.66;1766266;80;21036;-67
2021/12/25 05:44:25;;;;;;;30.15;16.75;;;;;;;2.28;94.67;148241.81;1763447;80;21505;-67
2021/12/25 05:46:54;;;;;;;30.45;16.05;;;;;;;2.31;94.55;148246.97;1772098;80;20988;-66
2021/12/25 05:49:24;;;;;;;33.00;17.32;;;;;;;2.31;94.47;148248.28;1760428;81;21120;-59
2021/12/25 05:51:56;;;;;;;28.98;15.80;;;;;;;2.33;94.48;148252.17;1701186;82;20946;-60
2021/12/25 05:54:30;;;;;;;29.10;13.45;;;;;;;2.33;94.51;148253.44;1722358;82;21079;-66
2021/12/25 05:57:17;;;;;;;31.05;16.55;;;;;;;2.37;94.69;148262.48;1720859;82;21067;-66
2021/12/25 05:59:48;;;;;;;30.50;16.50;;;;;;;2.41;94.95;148272.78;1728623;82;21016;-65
2021/12/25 06:02:25;;;;;;;32.42;17.98;;;;;;;2.46;95.20;148285.67;1723096;81;21635;-60
2021/12/25 06:04:52;;;;;;;30.35;15.45;;;;;;;2.53;95.18;148302.44;1739780;82;21001;-60
2021/12/25 06:07:19;;;;;;;27.80;16.17;;;;;;;2.57;95.18;148312.75;1730312;82;21052;-59
2021/12/25 06:09:47;;;;;;;30.55;16.80;;;;;;;2.63;95.23;148328.22;1732420;82;20974;-59
2021/12/25 06:12:16;;;;;;;30.77;16.85;;;;;;;2.71;95.07;148347.56;1732798;82;21107;-60
2021/12/25 06:14:44;;;;;;;30.97;16.25;;;;;;;2.75;94.73;148357.88;1728654;82;21155;-66
2021/12/25 06:17:14;;;;;;;30.82;16.35;;;;;;;2.78;94.55;148364.34;1724787;82;21064;-67
2021/12/25 06:19:45;;;;;;;28.98;15.90;;;;;;;2.81;94.43;148373.41;1732349;82;21088;-66
2021/12/25 06:22:13;;;;;;;30.02;16.35;;;;;;;2.84;94.33;148381.12;1663533;82;21052;-67
2021/12/25 06:24:44;;;;;;;30.43;16.35;;;;;;;2.88;94.08;148388.86;1718449;82;21053;-67
2021/12/25 06:27:13;;;;;;;30.55;16.90;;;;;;;2.89;93.98;148392.75;1728100;81;21098;-66
2021/12/25 06:29:41;;;;;;;26.75;15.53;;;;;;;2.93;94.03;148401.75;1731736;82;21080;-66
2021/12/25 06:32:26;;;;;;;32.10;16.95;;;;;;;3.00;93.87;148419.84;1732190;81;21048;-65
2021/12/25 06:35:06;;;;;;;31.25;17.07;;;;;;;3.04;93.74;148430.16;1720926;82;21459;-66
2021/12/25 06:37:46;;;;;;;30.02;16.57;;;;;;;3.08;93.64;148439.16;1711554;82;21047;-65
2021/12/25 06:40:30;;;;;;;32.42;17.10;;;;;;;3.12;93.51;148450.78;1722161;82;21208;-66
2021/12/25 06:42:58;;;;;;;34.23;16.65;;;;;;;3.17;93.54;148462.41;1703238;82;21536;-65
2021/12/25 06:45:25;;;;;;;32.33;17.37;;;;;;;3.24;93.50;148479.19;1723645;83;21615;-66
2021/12/25 06:47:53;;;;;;;32.83;16.82;;;;;;;3.31;93.33;148497.25;1737373;81;21051;-67
2021/12/25 06:50:38;;;;;;;;;;;;;;;3.38;93.18;148515.30;1737394;80;21963;-65
2021/12/25 06:53:06;;;;;;;28.65;15.95;;;;;;;3.46;92.96;148534.66;1702887;83;21135;-66
2021/12/25 06:55:52;;;;;;;29.60;17.45;;;;;;;3.52;92.77;148550.14;1683982;83;21025;-66
2021/12/25 06:58:23;;;;;;;33.50;16.93;;;;;;;3.58;92.46;148564.34;1684991;85;21154;-66
2021/12/25 07:00:50;;;;;;;36.23;17.23;;;;;;;3.65;92.38;148582.45;1715728;82;22382;-67
2021/12/25 07:03:17;;;;;;;28.65;16.32;;;;;;;3.76;92.21;148609.56;1687367;83;21068;-66
2021/12/25 07:06:03;;;;;;;27.40;15.90;;;;;;;3.85;91.89;148631.45;1728407;82;21138;-66
2021/12/25 07:08:30;;;;;;;30.02;17.42;;;;;;;3.95;91.66;148657.31;1686110;85;22122;-66
2021/12/25 07:11:02;;;;;;;28.55;16.40;;;;;;;4.01;91.18;148672.78;1704543;82;21550;-66
2021/12/25 07:13:34;;;;;;;31.70;17.07;;;;;;;4.07;90.69;148685.69;1665214;83;21139;-66
2021/12/25 07:16:03;;;;;;;33.18;17.12;;;;;;;4.11;90.68;148697.33;1682387;84;21001;-67
2021/12/25 07:18:50;;;;;;;27.93;16.23;;;;;;;4.16;90.07;148708.97;1711688;82;21660;-66
2021/12/25 07:21:21;;;;;;;30.52;16.42;;;;;;;4.21;89.81;148721.86;1684788;83;22157;-60
2021/12/25 07:24:06;;;;;;;27.22;16.10;;;;;;;4.27;89.57;148737.34;1699627;82;21041;-60
2021/12/25 07:26:35;;;;;;;31.95;16.35;;;;;;;4.34;89.42;148754.14;1707729;81;21061;-61
2021/12/25 07:29:19;;;;;;;26.10;15.68;;;;;;;4.44;89.14;148780.00;1740653;82;20980;-61
2021/12/25 07:31:46;;;;;;;27.85;16.85;;;;;;;4.52;88.91;148799.34;1739924;82;21653;-60
2021/12/25 07:34:13;;;;;;;29.72;16.77;;;;;;;4.66;88.39;148834.25;1732305;82;21139;-60
2021/12/25 07:36:39;;;;;;;33.92;17.75;;;;;;;4.66;88.39;148834.25;1735009;82;21446;-60
2021/12/25 07:39:06;;;;;;;26.75;16.60;;;;;;;4.77;88.07;148861.39;1737205;82;21463;-60
2021/12/25 07:41:33;;;;;;;28.02;16.60;;;;;;;4.88;87.81;148889.78;1735454;82;21093;-60
2021/12/25 07:44:01;;;;;;;28.07;16.60;;;;;;;4.99;87.56;148915.66;1729782;82;21101;-60
2021/12/25 07:46:42;;;;;;;30.15;16.52;;;;;;;5.10;87.23;148942.80;1712340;82;21075;-60
2021/12/25 07:49:15;;;;;;;29.42;16.30;;;;;;;5.25;86.28;148980.27;1720418;82;21599;-60
2021/12/25 07:51:37;;;;;;;25.68;14.80;;;;;;;5.25;86.28;148980.27;1731910;80;21056;-60
2021/12/25 07:54:04;;;;;;;30.48;16.42;;;;;;;5.36;86.12;149007.41;1758509;80;21098;-61
2021/12/25 07:56:32;;;;;;;29.12;15.53;;;;;;;5.45;85.82;149030.66;1727584;81;21497;-59
2021/12/25 07:58:59;;;;;;;26.93;15.85;;;;;;;5.54;85.45;149052.64;1768465;80;21024;-66
2021/12/25 08:01:26;;;;;;;25.82;15.50;;;;;;;5.62;85.25;149073.31;1766557;80;21196;-66
2021/12/25 08:03:53;;;;;;;25.70;15.65;;;;;;;5.70;84.94;149094.02;1734657;81;21020;-67
2021/12/25 08:06:19;;;;;;;27.93;15.90;;;;;;;5.77;84.62;149110.84;1757521;80;21052;-66
2021/12/25 08:08:48;;;;;;;24.55;15.10;;;;;;;5.84;84.40;149127.61;1754934;80;21470;-66
2021/12/25 08:11:16;;;;;;;31.12;16.87;;;;;;;5.91;83.88;149145.75;1757198;80;21347;-66
2021/12/25 08:13:43;;;;;;;28.85;15.90;;;;;;;5.94;83.36;149153.50;1761932;80;20967;-66
2021/12/25 08:16:10;;;;;;;30.30;16.37;;;;;;;5.94;83.06;149153.50;1728387;81;21087;-67
2021/12/25 08:18:37;;;;;;;30.92;17.15;;;;;;;5.98;82.92;149163.83;1731990;81;21055;-67
2021/12/25 08:21:23;;;;;;;32.00;17.17;;;;;;;6.02;82.56;149174.22;1728284;81;21166;-66
2021/12/25 08:24:09;;;;;;;32.03;16.60;;;;;;;6.09;82.54;149189.77;1764045;80;21087;-66
2021/12/25 08:26:54;;;;;;;29.25;17.70;;;;;;;6.16;82.44;149207.86;1764070;80;24729;-66
2021/12/25 08:29:36;;;;;;;27.32;16.48;;;;;;;6.25;82.33;149229.84;1756466;80;21080;-67
2021/12/25 08:32:20;;;;;;;29.25;17.07;;;;;;;6.36;82.21;149257.02;1754585;80;21024;-67
2021/12/25 08:34:48;;;;;;;29.67;16.20;;;;;;;6.48;81.84;149288.03;1686422;83;21656;-67
2021/12/25 08:37:21;;;;;;;30.82;17.23;;;;;;;6.55;81.33;149306.19;1727446;81;20866;-66
2021/12/25 08:39:46;;;;;;;29.35;16.80;;;;;;;6.57;80.72;149311.34;1765694;80;21016;-66
2021/12/25 08:42:12;;;;;;;32.45;17.25;;;;;;;6.59;80.35;149316.53;1764685;80;21438;-67
2021/12/25 08:44:52;;;;;;;29.48;16.62;;;;;;;6.61;80.38;149319.11;1756070;80;21056;-66
2021/12/25 08:47:11;;;;;;;29.70;17.05;;;;;;;6.66;80.38;149332.03;1753994;80;21131;-67
2021/12/25 08:49:40;;;;;;;27.80;16.37;;;;;;;6.74;80.03;149352.72;1764399;80;21063;-65
2021/12/25 08:52:11;;;;;;;25.85;15.88;;;;;;;6.81;79.96;149369.55;1758016;80;20875;-67
2021/12/25 08:54:38;;;;;;;26.55;15.80;;;;;;;6.91;79.87;149395.47;1716382;80;21461;-67
2021/12/25 08:57:05;;;;;;;26.37;15.35;;;;;;;6.99;79.58;149416.16;1750110;80;20985;-66
2021/12/25 08:59:33;;;;;;;27.15;15.95;;;;;;;7.08;79.39;149438.16;1748456;80;21273;-67
2021/12/25 09:02:06;;;;;;;26.52;15.50;;;;;;;7.15;79.04;149454.98;1740083;80;21066;-67
2021/12/25 09:04:33;;;;;;;28.23;15.25;;;;;;;7.23;78.77;149474.42;1750584;80;21045;-66
2021/12/25 09:07:00;;;;;;;26.80;15.05;;;;;;;7.29;78.61;149489.94;1747606;80;21020;-66
2021/12/25 09:09:26;;;;;;;25.10;14.73;;;;;;;7.35;78.31;149505.45;1758396;80;21063;-67
2021/12/25 09:11:53;;;;;;;23.30;14.40;;;;;;;7.39;78.17;149514.53;1754178;80;21055;-66
2021/12/25 09:14:20;;;;;;;24.57;14.68;;;;;;;7.47;78.03;149533.95;1751075;81;21004;-67
2021/12/25 09:16:47;;;;;;;27.10;14.98;;;;;;;7.52;77.76;149546.91;1757068;80;21171;-67
2021/12/25 09:19:14;;;;;;;27.87;15.80;;;;;;;7.56;77.63;149557.25;1752860;80;20945;-66
2021/12/25 09:21:41;;;;;;;25.20;15.05;;;;;;;7.61;77.41;149570.19;1748405;81;21418;-66
2021/12/25 09:24:07;;;;;;;25.48;15.55;;;;;;;7.64;77.34;149578.00;1765562;80;21324;-66
2021/12/25 09:26:34;;;;;;;24.35;14.78;;;;;;;7.68;77.04;149588.34;1723419;81;21085;-66
2021/12/25 09:29:01;;;;;;;25.85;14.93;;;;;;;7.71;76.81;149594.78;1756875;81;21076;-67
2021/12/25 09:31:28;;;;;;;28.27;15.35;;;;;;;7.71;76.64;149596.11;1760535;80;21025;-65
2021/12/25 09:33:54;;;;;;;24.45;14.70;;;;;;;7.75;76.40;149605.19;1756590;80;21494;-66
2021/12/25 09:36:21;;;;;;;25.15;15.05;;;;;;;7.76;76.12;149607.78;1760931;80;21108;-65
2021/12/25 09:38:48;;;;;;;26.52;15.70;;;;;;;7.77;76.00;149609.05;1727716;81;21096;-64
2021/12/25 09:41:18;;;;;;;27.25;16.05;;;;;;;7.77;75.79;149610.36;1728342;81;21009;-66
2021/12/25 09:43:47;;;;;;;27.10;16.07;;;;;;;7.78;75.75;149611.62;1718945;81;21613;-64
2021/12/25 09:46:14;;;;;;;25.32;15.72;;;;;;;7.82;75.66;149621.98;1715761;82;20972;-65
2021/12/25 09:48:42;;;;;;;24.45;15.23;;;;;;;7.86;75.48;149632.38;1746979;80;21163;-66
2021/12/25 09:51:09;;;;;;;27.22;15.98;;;;;;;7.88;75.22;149637.56;1757744;80;21042;-66
2021/12/25 09:53:36;;;;;;;26.20;15.95;;;;;;;7.90;75.13;149642.73;1747610;80;21036;-67
2021/12/25 09:56:04;;;;;;;28.73;15.83;;;;;;;7.95;75.14;149654.34;1736221;82;21000;-67
2021/12/25 09:58:31;;;;;;;28.17;15.65;;;;;;;7.97;74.82;149660.84;1738915;82;21024;-67
2021/12/25 10:00:58;;;;;;;26.82;16.17;;;;;;;7.98;74.57;149662.16;1737472;82;21898;-66
2021/12/25 10:03:28;;;;;;;25.97;14.55;;;;;;;7.95;74.55;149655.67;1742242;82;21568;-66
2021/12/25 10:05:54;;;;;;;28.85;15.38;;;;;;;7.95;74.48;149655.67;1719779;82;21139;-67
2021/12/25 10:08:25;;;;;;;25.43;15.45;;;;;;;7.98;74.51;149663.44;1735032;82;21065;-66
2021/12/25 10:10:59;;;;;;;28.92;15.48;;;;;;;8.01;74.43;149671.20;1696806;83;21040;-66
2021/12/25 10:13:40;;;;;;;23.27;14.18;;;;;;;8.04;74.33;149677.69;1739780;82;21541;-66
2021/12/25 10:16:28;;;;;;;23.22;14.70;;;;;;;8.07;74.01;149684.14;1733335;82;20895;-67
2021/12/25 10:19:18;;;;;;;23.73;14.07;;;;;;;8.05;73.94;149678.97;1689134;84;21538;-67
2021/12/25 10:21:44;;;;;;;29.18;16.02;;;;;;;8.05;73.81;149680.28;1698617;82;21651;-66
2021/12/25 10:24:17;;;;;;;23.87;15.08;;;;;;;8.01;73.77;149669.94;1718064;83;21069;-66
2021/12/25 10:26:47;;;;;;;24.70;15.15;;;;;;;8.00;73.79;149668.61;1699586;83;21918;-66
2021/12/25 10:29:29;;;;;;;23.60;14.53;;;;;;;8.01;73.93;149671.20;1741464;82;21049;-65
2021/12/25 10:31:58;;;;;;;24.05;14.83;;;;;;;8.02;73.92;149672.52;1735827;82;21105;-65
2021/12/25 10:34:31;;;;;;;29.10;14.90;;;;;;;8.01;73.91;149671.20;1738265;82;21041;-67
2021/12/25 10:37:10;;;;;;;24.05;14.63;;;;;;;8.01;73.90;149669.94;1688129;83;21109;-67
2021/12/25 10:39:36;;;;;;;23.85;14.95;;;;;;;7.98;73.95;149663.44;1741701;82;21057;-66
2021/12/25 10:42:16;;;;;;;26.82;15.20;;;;;;;8.00;74.01;149667.34;1731707;82;21088;-66
2021/12/25 10:44:54;;;;;;;25.92;15.28;;;;;;;8.01;73.96;149671.20;1707319;83;21052;-67
2021/12/25 10:47:24;;;;;;;23.05;14.60;;;;;;;8.03;73.77;149675.11;1689962;83;21041;-68
2021/12/25 10:49:59;;;;;;;24.07;13.53;;;;;;;8.02;73.65;149672.52;1743538;82;21013;-66
2021/12/25 10:52:33;;;;;;;23.20;14.47;;;;;;;8.00;73.64;149668.61;1695244;82;21098;-65
2021/12/25 10:55:06;;;;;;;20.37;13.30;;;;;;;8.01;73.56;149669.94;1758072;80;21026;-65
2021/12/25 10:57:46;;;;;;;24.52;15.05;;;;;;;7.98;73.53;149663.44;1765496;80;20972;-65
2021/12/25 11:00:21;;;;;;;24.63;14.63;;;;;;;7.95;73.50;149655.67;1761341;81;21595;-66
2021/12/25 11:02:59;;;;;;;;;;;;;;;7.94;73.66;149653.08;1751921;80;21080;-67
2021/12/25 11:05:33;;;;;;;24.50;14.53;;;;;;;7.95;73.83;149655.67;1774448;80;21119;-66
2021/12/25 11:08:16;;;;;;;25.48;15.80;;;;;;;7.98;73.78;149662.16;1728913;82;20984;-68
2021/12/25 11:10:55;;;;;;;27.02;16.70;;;;;;;7.98;73.84;149663.44;1762229;80;21702;-67
2021/12/25 11:13:39;;;;;;;24.57;15.20;;;;;;;8.02;73.83;149672.52;1762622;80;21509;-61
2021/12/25 11:16:37;;;;;;;29.85;14.63;;;;;;;8.04;73.75;149677.69;1759426;81;21513;-61
2021/12/25 11:19:27;;;;;;;27.15;14.40;;;;;;;8.03;73.72;149676.38;1763247;80;21102;-60
2021/12/25 11:21:50;;;;;;;20.68;13.55;;;;;;;8.05;73.80;149680.28;1759956;81;21083;-61
2021/12/25 11:24:23;;;;;;;23.73;13.53;;;;;;;8.03;73.81;149675.11;1761818;80;21492;-66
2021/12/25 11:26:59;;;;;;;24.75;13.95;;;;;;;8.04;74.04;149677.69;1764116;80;26485;-66
2021/12/25 11:29:28;;;;;;;;;;;;;;;8.05;74.02;149678.97;1757972;80;21083;-66
2021/12/25 11:31:55;;;;;;;22.75;12.30;;;;;;;8.05;74.09;149678.97;1719425;82;21212;-66
2021/12/25 11:34:22;;;;;;;19.57;12.18;;;;;;;8.06;74.20;149681.55;1767968;80;21076;-67
2021/12/25 11:36:52;;;;;;;21.80;11.73;;;;;;;8.12;74.27;149697.13;1766069;80;21494;-66
2021/12/25 11:39:20;;;;;;;19.62;11.65;;;;;;;8.18;74.15;149712.66;1769696;80;21450;-67
2021/12/25 11:41:48;;;;;;;21.27;11.35;;;;;;;8.23;74.11;149725.61;1765794;80;21091;-65
2021/12/25 11:44:44;;;;;;;18.67;11.70;;;;;;;8.28;73.89;149737.28;1731421;81;20977;-66
2021/12/25 11:47:40;;;;;;;22.00;12.37;;;;;;;8.29;73.86;149741.19;1748547;82;21390;-66
2021/12/25 11:50:21;;;;;;;20.00;11.73;;;;;;;8.31;73.77;149745.05;1728492;81;21072;-67
2021/12/25 11:53:15;;;;;;;19.27;11.15;;;;;;;8.31;73.67;149745.05;1758150;80;21064;-60
2021/12/25 11:58:35;;;;;;;23.02;11.88;;;;;;;8.30;73.76;149743.78;1715544;82;21141;-61
2021/12/25 12:00:49;;;;;;;21.68;11.70;;;;;;;8.29;73.84;149741.19;1770710;80;21067;-61
2021/12/25 12:03:47;;;;;;;19.42;10.63;;;;;;;8.29;73.82;149741.19;1748703;80;21063;-61
2021/12/25 12:06:15;;;;;;;23.40;11.88;;;;;;;8.28;73.68;149737.28;1758139;80;21009;-62
2021/12/25 12:08:59;;;;;;;21.85;12.80;;;;;;;8.24;73.67;149728.19;1745851;81;21699;-66
2021/12/25 12:11:49;;;;;;;20.32;12.60;;;;;;;8.23;73.84;149725.61;1758150;80;21212;-66
2021/12/25 12:14:25;;;;;;;20.17;12.23;;;;;;;8.25;73.87;149729.52;1732857;80;20930;-66
2021/12/25 12:17:22;;;;;;;20.20;12.80;;;;;;;8.23;73.82;149725.61;1713730;83;21494;-66
2021/12/25 12:19:53;;;;;;;24.15;13.35;;;;;;;8.23;74.02;149724.34;1712245;82;21103;-66
2021/12/25 12:28:01;;;;;;;24.67;12.23;;;;;;;8.26;74.09;149733.38;1686307;82;21047;-61
2021/12/25 12:30:47;;;;;;;23.67;12.88;;;;;;;8.26;74.07;149733.38;1752092;80;20960;-65
2021/12/25 12:33:21;;;;;;;22.70;12.75;;;;;;;8.27;74.13;149735.97;1760790;80;21053;-67
2021/12/25 12:35:51;;;;;;;23.35;13.38;;;;;;;8.28;74.02;149738.55;1731624;80;21101;-66
2021/12/25 12:38:43;;;;;;;25.25;13.55;;;;;;;8.29;73.96;149741.19;1730964;80;21808;-66
2021/12/25 12:41:33;;;;;;;22.37;14.25;;;;;;;8.29;73.97;149739.88;1744726;80;21000;-66
2021/12/25 12:44:13;;;;;;;29.63;14.53;;;;;;;8.29;73.97;149741.19;1765340;80;21075;-66
2021/12/25 12:46:57;;;;;;;23.40;13.65;;;;;;;8.30;74.02;149743.78;1759036;80;20960;-66
2021/12/25 12:49:40;;;;;;;23.85;13.45;;;;;;;8.33;74.07;149748.95;1715195;82;22123;-65